Search for airport 
image banner adimage banner adimage banner ad
image banner ad

3PS8 - Yingst

Located in Harrisburg, United States

ICAO - 3PS8, IATA -

Data provided by Airmate  

General information

Coordinates: N40°23'45" W76°44'45"
Elevation is 701 feet MSL.
 
View others Airports in Pennsylvania

Operational data

Special qualification required
Current time UTC:
Current local time:
METAR: KMUI 150456Z AUTO 00000KT 10SM BKN095 17/16 A2980 RMK AO2 SLP091 T01700155 402930160
TAF: TAF AMD KMUI 142000Z 1420/1601 VRB06KT 9999 FEW030 FEW050 QNH2975INS TEMPO 1421/1424 27025G35KT 4800 TSRAGR BKN035CB OVC050 BECMG 1423/1424 VRB06KT 6000 -SHRA FEW035 BKN050 OVC075 QNH2977INS TEMPO 1500/1506 25015G35KT 4800 TSRA BKN040CB OVC050 BECMG 1508/1509 VRB06KT 6000 BR BKN015 OVC030 QNH2973INS BECMG 1511/1512 32010G15KT 9999 NSW FEW020 BKN040 QNH2976INS TEMPO 1516/1520 30012G25KT 8000 -TSRA BKN040CB BECMG 1521/1522 33009KT 9999 SCT040 QNH2976INS TX31/1420Z TN18/1510Z LAST NO AMDS AFT 1505 NEXT 1511
View NOTAMs / SUP AIP / TFR affecting this airport [VIEW]
Communications frequencies: [VIEW]

Runways:

RWY identifierQFULength (ft)Width (ft)SurfaceLDA (ft)
091500100GRASS
271500100GRASS

Airport contact information

Address: Harrisburg United States

Satellite view of 3PS8